Time;durP1;ratioP1;P1;durP2;ratioP2;P2;SDS_P1;SDS_P2;PMS_P1;PMS_P2;Temp;Humidity;BMP_temperature;BMP_pressure;BME280_temperature;BME280_humidity;BME280_pressure;Samples;Min_cycle;Max_cycle;Signal;HPM_P1;HPM_P2
2023/09/08 00:01:47;;;;;;;8.10;7.37;;;19.40;99.90;;;;;;5073099;28;20449;-67
2023/09/08 00:04:14;;;;;;;8.60;7.70;;;19.40;99.90;;;;;;5072811;28;20452;-66
2023/09/08 00:06:41;;;;;;;8.50;7.67;;;19.40;99.90;;;;;;5072720;28;20455;-66
2023/09/08 00:09:07;;;;;;;7.70;6.93;;;19.30;99.90;;;;;;5072630;28;20534;-66
2023/09/08 00:11:34;;;;;;;8.37;7.70;;;19.40;99.90;;;;;;5075477;28;20881;-66
2023/09/08 00:14:00;;;;;;;8.53;7.67;;;19.40;99.90;;;;;;5076263;28;20482;-66
2023/09/08 00:16:29;;;;;;;8.10;7.33;;;19.40;99.90;;;;;;5076375;28;20866;-66
2023/09/08 00:18:58;;;;;;;8.80;8.10;;;19.30;99.90;;;;;;5076398;28;20522;-66
2023/09/08 00:21:25;;;;;;;8.33;7.63;;;19.40;99.90;;;;;;5076346;28;20500;-66
2023/09/08 00:23:51;;;;;;;8.60;7.90;;;19.30;99.90;;;;;;5076318;28;20889;-66
2023/09/08 00:26:18;;;;;;;8.50;7.80;;;19.30;99.90;;;;;;5076175;28;20761;-66
2023/09/08 00:28:44;;;;;;;8.00;7.20;;;19.30;99.90;;;;;;5075660;28;20558;-66
2023/09/08 00:31:11;;;;;;;7.90;7.20;;;19.30;99.90;;;;;;5076235;28;20964;-66
2023/09/08 00:33:37;;;;;;;8.23;7.50;;;19.20;99.90;;;;;;5076089;28;20505;-66
2023/09/08 00:36:05;;;;;;;8.43;7.73;;;19.20;99.90;;;;;;5075983;28;20982;-66
2023/09/08 00:38:32;;;;;;;8.10;7.37;;;19.20;99.90;;;;;;5076008;28;20881;-66
2023/09/08 00:41:00;;;;;;;7.70;6.83;;;19.20;99.90;;;;;;5075897;28;20478;-66
2023/09/08 00:43:27;;;;;;;8.33;7.53;;;19.20;99.90;;;;;;5075731;28;20439;-66
2023/09/08 00:45:55;;;;;;;8.33;7.60;;;19.20;99.90;;;;;;5075976;28;20532;-66
2023/09/08 00:48:22;;;;;;;8.13;7.43;;;19.10;99.90;;;;;;5075875;28;20489;-66
2023/09/08 00:50:49;;;;;;;7.97;7.27;;;19.10;99.90;;;;;;5075815;28;20449;-66
2023/09/08 00:53:16;;;;;;;7.70;7.13;;;19.10;99.90;;;;;;5075702;28;20569;-66
2023/09/08 00:55:43;;;;;;;8.43;7.73;;;19.10;99.90;;;;;;5075545;28;21133;-66
2023/09/08 00:58:11;;;;;;;9.57;7.37;;;19.00;99.90;;;;;;5075524;28;20443;-66
2023/09/08 01:00:38;;;;;;;7.87;7.27;;;19.00;99.90;;;;;;5075672;28;20449;-66
2023/09/08 01:03:05;;;;;;;8.90;8.10;;;19.00;99.90;;;;;;5075588;28;20446;-66
2023/09/08 01:05:31;;;;;;;8.60;7.90;;;19.00;99.90;;;;;;5075599;28;20443;-66
2023/09/08 01:08:00;;;;;;;8.90;8.20;;;19.00;99.90;;;;;;5075473;28;20526;-66
2023/09/08 01:10:28;;;;;;;8.33;7.73;;;18.90;99.90;;;;;;5075314;28;20801;-66
2023/09/08 01:12:54;;;;;;;7.90;7.30;;;19.00;99.90;;;;;;5075359;28;20481;-66
2023/09/08 01:15:21;;;;;;;10.23;7.43;;;18.80;99.90;;;;;;5075412;28;20784;-66
2023/09/08 01:17:47;;;;;;;8.13;7.53;;;18.80;99.90;;;;;;5075367;28;20450;-66
2023/09/08 01:20:21;;;;;;;9.97;9.07;;;18.80;99.90;;;;;;5075209;28;20444;-66
2023/09/08 01:23:04;;;;;;;9.20;7.20;;;18.80;99.90;;;;;;5074834;28;20444;-66
2023/09/08 01:25:33;;;;;;;8.27;7.47;;;18.80;99.90;;;;;;5075232;28;20480;-66
2023/09/08 01:28:03;;;;;;;14.60;8.17;;;18.70;99.90;;;;;;5074972;28;20463;-66
2023/09/08 01:30:32;;;;;;;9.43;8.53;;;18.70;99.90;;;;;;5075071;28;20447;-66
2023/09/08 01:33:00;;;;;;;8.87;8.07;;;18.70;99.90;;;;;;5074893;28;20471;-66
2023/09/08 01:35:26;;;;;;;8.60;7.90;;;18.70;99.90;;;;;;5074931;28;21002;-66
2023/09/08 01:37:53;;;;;;;8.50;7.80;;;18.60;99.90;;;;;;5075008;28;20443;-66
2023/09/08 01:40:19;;;;;;;8.60;7.80;;;18.60;99.90;;;;;;5074916;28;20530;-66
2023/09/08 01:42:48;;;;;;;8.43;7.37;;;18.60;99.90;;;;;;5074686;28;20474;-66
2023/09/08 01:45:14;;;;;;;8.07;7.37;;;18.70;99.90;;;;;;5074713;28;20444;-66
2023/09/08 01:47:41;;;;;;;8.50;7.70;;;18.60;99.90;;;;;;5074610;28;20534;-66
2023/09/08 01:50:08;;;;;;;8.10;7.30;;;18.50;99.90;;;;;;5074506;28;20542;-66
2023/09/08 01:52:35;;;;;;;10.00;8.53;;;18.40;99.90;;;;;;5074621;28;20534;-66
2023/09/08 01:55:01;;;;;;;7.83;7.23;;;18.40;99.90;;;;;;5074526;28;20569;-66
2023/09/08 01:57:27;;;;;;;9.33;8.43;;;18.20;99.90;;;;;;5074451;28;20443;-66
2023/09/08 01:59:55;;;;;;;9.13;8.33;;;18.20;99.90;;;;;;5074443;28;20534;-66
2023/09/08 02:02:22;;;;;;;8.57;7.70;;;18.10;99.90;;;;;;5074316;28;20543;-66
2023/09/08 02:04:49;;;;;;;8.67;7.87;;;18.20;99.90;;;;;;5074180;28;20530;-66
2023/09/08 02:07:15;;;;;;;8.67;7.97;;;18.20;99.90;;;;;;5074437;28;20440;-66
2023/09/08 02:09:42;;;;;;;8.83;8.07;;;18.20;99.90;;;;;;5074245;28;20440;-66
2023/09/08 02:12:09;;;;;;;9.37;8.47;;;18.20;99.90;;;;;;5074185;28;20452;-66
2023/09/08 02:14:35;;;;;;;8.70;7.83;;;18.10;99.90;;;;;;5074049;28;20490;-66
2023/09/08 02:17:04;;;;;;;8.70;7.90;;;18.10;99.90;;;;;;5073933;28;20521;-66
2023/09/08 02:19:30;;;;;;;10.10;8.70;;;18.10;99.90;;;;;;5074130;28;20542;-66
2023/09/08 02:21:57;;;;;;;9.30;8.50;;;18.10;99.90;;;;;;5074014;28;20528;-67
2023/09/08 02:24:23;;;;;;;8.60;7.90;;;18.10;99.90;;;;;;5073760;28;21079;-66
2023/09/08 02:26:50;;;;;;;9.83;9.03;;;18.10;99.90;;;;;;5073913;28;20890;-66
2023/09/08 02:29:16;;;;;;;9.83;9.00;;;18.10;99.90;;;;;;5073593;28;20478;-66
2023/09/08 02:31:43;;;;;;;9.20;8.27;;;18.10;99.90;;;;;;5073603;28;20538;-66
2023/09/08 02:34:12;;;;;;;9.70;8.87;;;18.10;99.90;;;;;;5073081;28;20484;-66
2023/09/08 02:36:38;;;;;;;9.73;8.23;;;18.10;99.90;;;;;;5073581;28;21001;-66
2023/09/08 02:39:04;;;;;;;9.90;8.97;;;17.80;99.90;;;;;;5073716;28;20450;-66
2023/09/08 02:41:31;;;;;;;9.60;8.80;;;17.60;99.90;;;;;;5073552;28;20538;-66
2023/09/08 02:43:57;;;;;;;9.90;9.00;;;17.60;99.90;;;;;;5073590;28;20444;-66
2023/09/08 02:46:24;;;;;;;10.57;8.00;;;17.70;99.90;;;;;;5073332;28;20577;-66
2023/09/08 02:48:50;;;;;;;9.90;8.93;;;17.80;99.90;;;;;;5073608;28;21022;-66
2023/09/08 02:51:18;;;;;;;9.70;8.57;;;17.80;99.90;;;;;;5073517;28;20538;-66
2023/09/08 02:53:45;;;;;;;8.93;8.13;;;17.80;99.90;;;;;;5073362;28;20490;-66
2023/09/08 02:56:11;;;;;;;10.13;9.20;;;17.80;99.90;;;;;;5073337;28;20447;-66
2023/09/08 02:58:38;;;;;;;9.10;7.83;;;17.80;99.90;;;;;;5073752;28;20451;-66
2023/09/08 03:01:13;;;;;;;9.10;8.30;;;17.90;99.90;;;;;;5073201;28;20436;-66
2023/09/08 03:03:40;;;;;;;9.50;8.70;;;17.80;99.90;;;;;;5073374;28;20537;-66
2023/09/08 03:06:06;;;;;;;10.90;8.50;;;17.80;99.90;;;;;;5073239;28;20501;-66
2023/09/08 03:08:34;;;;;;;9.00;8.30;;;17.80;99.90;;;;;;5073182;28;20538;-66
2023/09/08 03:11:00;;;;;;;9.07;8.37;;;17.90;99.90;;;;;;5073096;28;20534;-66
2023/09/08 03:13:28;;;;;;;11.13;10.00;;;17.90;99.90;;;;;;5072983;28;20471;-66
2023/09/08 03:15:55;;;;;;;9.83;8.67;;;17.90;99.90;;;;;;5073218;28;20855;-66
2023/09/08 03:18:21;;;;;;;9.93;9.00;;;17.80;99.90;;;;;;5073181;28;20447;-66
2023/09/08 03:20:50;;;;;;;9.93;8.70;;;17.80;99.90;;;;;;5073090;28;20443;-66
2023/09/08 03:23:16;;;;;;;10.33;8.83;;;17.80;99.90;;;;;;5073077;28;20795;-66
2023/09/08 03:25:44;;;;;;;12.13;9.20;;;17.80;99.90;;;;;;5073397;28;20968;-66
2023/09/08 03:28:10;;;;;;;9.60;8.80;;;17.80;99.90;;;;;;5072816;28;20921;-66
2023/09/08 03:30:37;;;;;;;9.50;8.70;;;17.70;99.90;;;;;;5073115;28;20534;-66
2023/09/08 03:33:03;;;;;;;10.37;9.43;;;17.70;99.90;;;;;;5072963;28;20522;-66
2023/09/08 03:35:30;;;;;;;9.30;8.40;;;17.70;99.90;;;;;;5072898;28;20483;-66
2023/09/08 03:37:56;;;;;;;10.17;9.17;;;17.70;99.90;;;;;;5072869;28;20535;-66
2023/09/08 03:40:23;;;;;;;10.63;9.63;;;17.70;99.90;;;;;;5072768;28;20542;-66
2023/09/08 03:42:51;;;;;;;9.60;8.80;;;17.70;99.90;;;;;;5073083;28;20530;-67
2023/09/08 03:45:17;;;;;;;9.20;8.30;;;17.70;99.90;;;;;;5075393;28;20475;-66
2023/09/08 03:47:44;;;;;;;9.50;8.63;;;17.70;99.90;;;;;;5077006;28;20534;-67
2023/09/08 03:50:11;;;;;;;10.27;9.27;;;17.70;99.90;;;;;;5076906;28;20855;-66
2023/09/08 03:52:37;;;;;;;12.50;8.70;;;17.70;99.90;;;;;;5076888;28;20450;-66
2023/09/08 03:55:04;;;;;;;10.77;9.67;;;17.70;99.90;;;;;;5076634;28;20475;-66
2023/09/08 03:57:31;;;;;;;9.70;8.70;;;17.70;99.90;;;;;;5076888;28;20530;-66
2023/09/08 03:59:58;;;;;;;10.80;9.70;;;17.70;99.90;;;;;;5076809;28;20443;-66
2023/09/08 04:02:25;;;;;;;10.00;9.10;;;17.60;99.90;;;;;;5076660;28;20539;-66
2023/09/08 04:04:51;;;;;;;10.20;9.30;;;17.60;99.90;;;;;;5076628;28;20454;-66
2023/09/08 04:07:18;;;;;;;11.47;9.43;;;17.60;99.90;;;;;;5076512;28;20447;-66
2023/09/08 04:09:44;;;;;;;13.37;9.97;;;17.60;99.90;;;;;;5076449;28;20447;-66
2023/09/08 04:12:11;;;;;;;10.53;9.43;;;17.60;99.90;;;;;;5076398;28;20930;-66
2023/09/08 04:14:38;;;;;;;16.23;9.60;;;17.60;99.90;;;;;;5076429;28;20482;-66
2023/09/08 04:17:06;;;;;;;10.47;9.37;;;17.60;99.90;;;;;;5076423;28;20542;-66
2023/09/08 04:19:32;;;;;;;10.93;9.00;;;17.50;99.90;;;;;;5076281;28;20450;-66
2023/09/08 04:21:59;;;;;;;9.87;9.03;;;17.50;99.90;;;;;;5076181;28;21002;-67
2023/09/08 04:24:25;;;;;;;9.50;8.60;;;17.50;99.90;;;;;;5076057;28;20443;-66
2023/09/08 04:26:52;;;;;;;10.80;9.90;;;17.50;99.90;;;;;;5076229;28;20497;-66
2023/09/08 04:29:19;;;;;;;9.97;9.17;;;17.50;99.90;;;;;;5075850;28;20475;-67
2023/09/08 04:31:46;;;;;;;9.73;8.83;;;17.50;99.90;;;;;;5076127;28;20448;-66
2023/09/08 04:34:13;;;;;;;10.73;9.70;;;17.50;99.90;;;;;;5075886;28;20479;-66
2023/09/08 04:36:40;;;;;;;11.27;10.07;;;17.50;99.90;;;;;;5075953;28;20530;-66
2023/09/08 04:39:08;;;;;;;10.33;9.30;;;17.50;99.90;;;;;;5076081;28;20530;-66
2023/09/08 04:41:35;;;;;;;10.10;9.10;;;17.50;99.90;;;;;;5075967;28;20493;-66
2023/09/08 04:44:01;;;;;;;12.00;9.80;;;17.50;99.90;;;;;;5075839;28;20534;-66
2023/09/08 04:46:28;;;;;;;12.10;9.70;;;17.50;99.90;;;;;;5075866;28;20449;-66
2023/09/08 04:48:55;;;;;;;10.77;9.87;;;17.50;99.90;;;;;;5075652;28;20447;-66
2023/09/08 04:51:22;;;;;;;10.03;9.03;;;17.50;99.90;;;;;;5075473;28;20534;-66
2023/09/08 04:53:49;;;;;;;10.20;9.20;;;17.40;99.90;;;;;;5075735;28;20450;-66
2023/09/08 04:56:15;;;;;;;11.53;10.43;;;17.50;99.90;;;;;;5074835;28;21165;-66
2023/09/08 04:58:42;;;;;;;10.17;9.37;;;17.40;99.90;;;;;;5075598;28;20539;-66
2023/09/08 05:01:08;;;;;;;10.43;9.43;;;17.50;99.90;;;;;;5075489;28;21025;-66
2023/09/08 05:03:35;;;;;;;17.50;9.60;;;17.50;99.90;;;;;;5075484;28;20535;-66
2023/09/08 05:06:02;;;;;;;11.10;10.10;;;17.50;99.90;;;;;;5075355;28;20457;-66
2023/09/08 05:08:29;;;;;;;10.77;9.67;;;17.50;99.90;;;;;;5075515;28;20448;-66
2023/09/08 05:10:56;;;;;;;10.47;9.47;;;17.50;99.90;;;;;;5075425;28;20815;-66
2023/09/08 05:13:26;;;;;;;10.10;8.80;;;17.50;99.90;;;;;;5075297;28;20539;-66
2023/09/08 05:15:59;;;;;;;12.00;10.80;;;17.60;99.90;;;;;;5075204;28;20506;-66
2023/09/08 05:18:26;;;;;;;19.23;9.80;;;17.60;99.90;;;;;;5075131;28;20448;-66
2023/09/08 05:20:53;;;;;;;11.03;9.90;;;17.60;99.90;;;;;;5075356;28;20501;-66
2023/09/08 05:23:19;;;;;;;11.03;9.93;;;17.60;99.90;;;;;;5075292;28;20859;-66
2023/09/08 05:25:47;;;;;;;12.10;10.83;;;17.70;99.90;;;;;;5075069;28;20532;-66
2023/09/08 05:28:13;;;;;;;11.83;10.07;;;17.70;99.90;;;;;;5078570;28;20582;-66
2023/09/08 05:30:40;;;;;;;12.67;10.20;;;17.70;99.90;;;;;;5074872;28;20439;-66
2023/09/08 05:33:07;;;;;;;11.87;10.77;;;17.80;99.90;;;;;;5074762;28;20489;-66
2023/09/08 05:35:33;;;;;;;12.23;10.37;;;17.70;99.90;;;;;;5074702;28;20573;-66
2023/09/08 05:38:00;;;;;;;10.90;10.00;;;17.70;99.90;;;;;;5074844;28;20450;-66
2023/09/08 05:40:26;;;;;;;10.90;9.90;;;17.80;99.90;;;;;;5074754;28;20543;-66
2023/09/08 05:42:54;;;;;;;11.87;10.90;;;17.80;99.90;;;;;;5074536;28;20535;-66
2023/09/08 05:45:21;;;;;;;11.57;10.37;;;17.70;99.90;;;;;;5075076;28;20541;-66
2023/09/08 05:47:49;;;;;;;11.73;10.60;;;17.80;99.90;;;;;;5074782;28;20446;-66
2023/09/08 05:50:15;;;;;;;12.57;11.23;;;17.80;99.90;;;;;;5074717;28;20443;-66
2023/09/08 05:52:42;;;;;;;11.43;10.23;;;17.80;99.90;;;;;;5074417;28;21030;-66
2023/09/08 05:55:08;;;;;;;12.10;10.77;;;17.80;99.90;;;;;;5074467;28;20830;-66
2023/09/08 05:57:35;;;;;;;11.27;10.20;;;18.00;99.90;;;;;;5074458;28;20447;-66
2023/09/08 06:00:03;;;;;;;11.60;10.40;;;18.00;99.90;;;;;;5074132;28;20470;-66
2023/09/08 06:02:30;;;;;;;14.57;11.90;;;18.10;99.90;;;;;;5074427;28;20471;-66
2023/09/08 06:04:56;;;;;;;11.30;10.20;;;18.10;99.90;;;;;;5074255;28;20534;-66
2023/09/08 06:07:23;;;;;;;18.43;10.37;;;18.10;99.90;;;;;;5073581;28;20447;-66
2023/09/08 06:09:49;;;;;;;13.40;10.40;;;18.20;99.90;;;;;;5073807;28;20863;-66
2023/09/08 06:12:16;;;;;;;10.50;9.53;;;18.20;99.90;;;;;;5074127;28;20497;-66
2023/09/08 06:14:42;;;;;;;11.60;10.43;;;18.30;99.90;;;;;;5073909;28;20826;-66
2023/09/08 06:17:10;;;;;;;11.40;10.30;;;18.40;99.90;;;;;;5074088;28;20530;-66
2023/09/08 06:19:37;;;;;;;11.23;10.13;;;18.50;99.90;;;;;;5074041;28;20447;-66
2023/09/08 06:22:04;;;;;;;10.73;9.73;;;18.60;99.90;;;;;;5074008;28;20454;-66
2023/09/08 06:24:30;;;;;;;11.53;10.37;;;18.70;99.90;;;;;;5073912;28;20547;-66
2023/09/08 06:26:57;;;;;;;9.80;8.80;;;18.80;99.90;;;;;;5073511;28;20450;-66
2023/09/08 06:29:23;;;;;;;14.20;10.90;;;19.00;99.90;;;;;;5073455;28;20561;-67
2023/09/08 06:31:50;;;;;;;11.23;10.10;;;19.20;99.90;;;;;;5073636;28;20530;-67
2023/09/08 06:34:20;;;;;;;11.90;9.33;;;19.30;99.90;;;;;;5073685;28;20458;-66
2023/09/08 06:36:47;;;;;;;10.33;9.23;;;19.40;99.90;;;;;;5073672;28;20803;-67
2023/09/08 06:39:13;;;;;;;10.40;9.50;;;19.60;99.90;;;;;;5073581;28;20447;-66
2023/09/08 06:41:40;;;;;;;9.73;8.83;;;19.70;99.90;;;;;;5073410;28;20530;-67
2023/09/08 06:44:06;;;;;;;10.37;9.37;;;19.70;99.90;;;;;;5073691;28;20451;-67
2023/09/08 06:46:33;;;;;;;11.23;9.63;;;19.80;99.90;;;;;;5073549;28;20454;-67
2023/09/08 06:48:59;;;;;;;10.60;9.60;;;19.90;99.90;;;;;;5073480;28;20534;-67
2023/09/08 06:51:27;;;;;;;11.10;9.30;;;20.00;99.90;;;;;;5073182;28;20479;-67
2023/09/08 06:53:59;;;;;;;9.53;8.63;;;20.10;99.90;;;;;;5073163;28;20530;-65
2023/09/08 06:56:26;;;;;;;10.27;9.33;;;20.30;99.90;;;;;;5072915;28;20475;-72
2023/09/08 06:58:52;;;;;;;9.50;8.50;;;20.50;99.90;;;;;;5072858;28;21017;-68
2023/09/08 07:01:19;;;;;;;11.50;10.30;;;20.50;99.90;;;;;;5073115;28;20447;-75
2023/09/08 07:03:45;;;;;;;9.03;8.13;;;20.50;99.90;;;;;;5073069;28;20451;-73
2023/09/08 07:06:12;;;;;;;9.40;8.60;;;20.60;99.90;;;;;;5073069;28;20448;-72
2023/09/08 07:08:40;;;;;;;10.13;9.13;;;20.70;99.90;;;;;;5072926;28;20439;-73
2023/09/08 07:11:06;;;;;;;10.47;8.70;;;20.90;99.90;;;;;;5073133;28;20526;-74
2023/09/08 07:13:32;;;;;;;9.77;8.87;;;21.00;99.90;;;;;;5072816;28;21139;-77
2023/09/08 07:15:59;;;;;;;11.30;8.37;;;21.20;99.90;;;;;;5072975;28;20483;-72
2023/09/08 07:18:26;;;;;;;9.67;7.80;;;21.40;99.90;;;;;;5072961;28;20879;-79
2023/09/08 07:20:52;;;;;;;9.30;8.40;;;21.50;99.90;;;;;;5072706;28;20454;-68
2023/09/08 07:23:19;;;;;;;8.63;7.73;;;21.50;99.90;;;;;;5072801;28;20533;-75
2023/09/08 07:25:50;;;;;;;9.00;8.10;;;21.60;99.90;;;;;;5073019;28;20534;-67
2023/09/08 07:28:17;;;;;;;8.80;7.80;;;21.80;99.90;;;;;;5072491;28;20499;-73
2023/09/08 07:30:44;;;;;;;7.77;7.17;;;21.90;99.90;;;;;;5071928;28;20431;-72
2023/09/08 07:33:11;;;;;;;8.10;7.40;;;22.10;99.90;;;;;;5071942;28;20450;-72
2023/09/08 07:35:38;;;;;;;7.63;7.03;;;22.20;99.90;;;;;;5072392;28;20514;-72
2023/09/08 07:38:04;;;;;;;8.23;7.40;;;22.40;99.90;;;;;;5072707;28;20454;-71
2023/09/08 07:40:32;;;;;;;11.47;7.50;;;22.40;99.90;;;;;;5072947;28;20788;-72
2023/09/08 07:42:59;;;;;;;8.30;7.00;;;22.40;99.90;;;;;;5072892;28;20526;-72
2023/09/08 07:45:26;;;;;;;8.00;7.30;;;22.30;99.90;;;;;;5072782;28;20443;-72
2023/09/08 07:47:53;;;;;;;9.40;7.00;;;22.40;99.90;;;;;;5072731;28;20876;-72
2023/09/08 07:50:21;;;;;;;8.63;7.90;;;22.40;99.90;;;;;;5072722;28;20534;-72
2023/09/08 07:52:48;;;;;;;9.70;7.73;;;22.50;99.90;;;;;;5072919;28;20444;-72
2023/09/08 07:55:15;;;;;;;10.10;7.60;;;22.40;99.90;;;;;;5072511;28;21002;-72
2023/09/08 07:57:42;;;;;;;8.40;7.43;;;22.50;99.90;;;;;;5072443;28;20443;-72
2023/09/08 08:00:11;;;;;;;9.50;7.70;;;22.60;99.90;;;;;;5072456;28;20447;-72
2023/09/08 08:02:38;;;;;;;8.43;7.63;;;22.70;99.90;;;;;;5072504;28;20447;-72
2023/09/08 08:05:05;;;;;;;8.70;6.60;;;22.80;99.90;;;;;;5072424;28;20458;-72
2023/09/08 08:07:32;;;;;;;9.13;6.83;;;22.80;99.90;;;;;;5072621;28;20484;-70
2023/09/08 08:09:59;;;;;;;7.87;7.17;;;23.00;99.90;;;;;;5072603;28;20490;-70
2023/09/08 08:12:25;;;;;;;7.50;7.00;;;23.10;99.90;;;;;;5072595;28;20889;-70
2023/09/08 08:14:52;;;;;;;7.00;6.50;;;23.30;99.90;;;;;;5072258;28;20469;-70
2023/09/08 08:17:20;;;;;;;7.73;6.70;;;23.40;99.90;;;;;;5072915;28;20447;-69
2023/09/08 08:19:47;;;;;;;6.57;5.93;;;23.60;99.90;;;;;;5072388;28;20435;-70
2023/09/08 08:22:13;;;;;;;6.60;6.07;;;23.70;99.90;;;;;;5072516;28;20907;-70
2023/09/08 08:24:40;;;;;;;8.03;6.57;;;23.80;99.90;;;;;;5072327;28;20534;-70
2023/09/08 08:27:06;;;;;;;7.40;6.00;;;23.80;99.90;;;;;;5072382;28;20865;-70
2023/09/08 08:29:33;;;;;;;6.83;6.33;;;23.90;99.90;;;;;;5071844;28;20550;-70
2023/09/08 08:31:59;;;;;;;6.77;6.13;;;23.90;99.90;;;;;;5074112;28;20443;-70
2023/09/08 08:34:27;;;;;;;6.73;6.10;;;24.00;99.90;;;;;;5075695;28;20542;-70
2023/09/08 08:36:54;;;;;;;6.93;6.20;;;24.10;99.90;;;;;;5076183;28;20482;-70
2023/09/08 08:39:20;;;;;;;6.20;5.70;;;24.10;99.90;;;;;;5075976;28;20497;-70
2023/09/08 08:41:47;;;;;;;7.40;6.10;;;24.20;99.90;;;;;;5075883;28;20443;-70
2023/09/08 08:44:16;;;;;;;6.20;5.50;;;24.20;99.90;;;;;;5075813;28;20450;-72
2023/09/08 08:46:43;;;;;;;6.13;5.50;;;24.20;99.90;;;;;;5075693;28;20526;-73
2023/09/08 08:49:11;;;;;;;6.63;5.93;;;24.30;99.90;;;;;;5075908;28;20514;-73
2023/09/08 08:51:42;;;;;;;6.30;5.13;;;24.40;99.90;;;;;;5075738;28;20445;-73
2023/09/08 08:54:09;;;;;;;6.27;5.83;;;24.50;99.90;;;;;;5075711;28;20450;-73
2023/09/08 08:56:37;;;;;;;6.37;5.73;;;24.70;99.90;;;;;;5075371;28;20838;-73
2023/09/08 08:59:04;;;;;;;5.67;5.30;;;24.70;99.90;;;;;;5075568;28;20895;-73
2023/09/08 09:01:32;;;;;;;7.00;6.40;;;24.90;99.90;;;;;;5075423;28;20530;-73
2023/09/08 09:03:59;;;;;;;5.83;5.30;;;25.00;99.90;;;;;;5075572;28;20537;-73
2023/09/08 09:06:25;;;;;;;7.33;6.60;;;25.10;99.90;;;;;;5075498;28;20450;-73
2023/09/08 09:08:53;;;;;;;5.43;4.93;;;25.10;99.90;;;;;;5075351;28;20511;-73
2023/09/08 09:11:19;;;;;;;5.97;5.37;;;25.10;99.90;;;;;;5075154;28;20449;-73
2023/09/08 09:13:46;;;;;;;6.93;6.30;;;25.10;99.90;;;;;;5074943;28;20447;-68
2023/09/08 09:16:12;;;;;;;6.40;5.33;;;25.20;99.90;;;;;;5075145;28;20993;-66
2023/09/08 09:18:55;;;;;;;5.73;5.23;;;25.30;99.90;;;;;;5074911;28;20530;-71
2023/09/08 09:21:21;;;;;;;8.40;5.57;;;25.30;99.90;;;;;;5075143;28;20440;-71
2023/09/08 09:23:48;;;;;;;7.10;5.63;;;25.30;99.90;;;;;;5074930;28;20527;-72
2023/09/08 09:26:24;;;;;;;6.43;4.90;;;25.40;99.90;;;;;;5074379;28;20542;-70
2023/09/08 09:28:53;;;;;;;6.50;5.37;;;25.30;99.90;;;;;;5074644;28;20551;-66
2023/09/08 09:31:23;;;;;;;5.10;4.70;;;25.40;99.90;;;;;;5074982;28;20489;-72
2023/09/08 09:34:04;;;;;;;4.90;4.50;;;25.50;99.90;;;;;;5074793;28;20818;-73
2023/09/08 09:36:30;;;;;;;5.30;4.63;;;25.60;99.90;;;;;;5074667;28;20497;-73
2023/09/08 09:38:59;;;;;;;5.10;4.70;;;25.70;99.90;;;;;;5074850;28;20454;-66
2023/09/08 09:41:28;;;;;;;6.00;5.40;;;25.80;99.90;;;;;;5074809;28;20444;-70
2023/09/08 09:43:55;;;;;;;5.10;4.70;;;25.90;99.90;;;;;;5074405;28;20497;-73
2023/09/08 09:46:22;;;;;;;5.77;5.27;;;25.90;99.90;;;;;;5074633;28;20877;-74
2023/09/08 09:48:52;;;;;;;5.50;5.00;;;26.00;99.90;;;;;;5074510;28;20482;-75
2023/09/08 09:51:20;;;;;;;5.47;4.97;;;26.00;99.90;;;;;;5074336;28;20443;-69
2023/09/08 09:53:48;;;;;;;5.30;4.80;;;26.20;99.90;;;;;;5074580;28;20471;-73
2023/09/08 09:56:15;;;;;;;6.43;5.83;;;26.30;99.90;;;;;;5074409;28;20675;-74
2023/09/08 09:58:44;;;;;;;4.87;4.47;;;26.30;99.90;;;;;;5074383;28;20535;-74
2023/09/08 10:01:12;;;;;;;5.83;5.30;;;26.40;99.90;;;;;;5074225;28;20447;-74
2023/09/08 10:03:39;;;;;;;6.57;6.00;;;26.40;99.90;;;;;;5074066;28;20915;-73
2023/09/08 10:06:06;;;;;;;5.43;5.00;;;26.30;99.90;;;;;;5074048;28;20538;-75
2023/09/08 10:08:36;;;;;;;5.07;4.60;;;26.20;99.90;;;;;;5074263;28;20534;-74
2023/09/08 10:11:07;;;;;;;5.80;5.20;;;26.20;99.90;;;;;;5074489;28;20440;-74
2023/09/08 10:13:40;;;;;;;6.13;5.63;;;26.30;99.90;;;;;;5074135;28;21031;-77
2023/09/08 10:16:09;;;;;;;5.70;5.27;;;26.40;99.90;;;;;;5073837;28;20467;-76
2023/09/08 10:18:36;;;;;;;6.20;5.70;;;26.40;99.90;;;;;;5074050;28;20454;-77
2023/09/08 10:21:05;;;;;;;5.90;5.40;;;26.40;99.90;;;;;;5074035;28;20538;-76
2023/09/08 10:23:37;;;;;;;6.33;5.83;;;26.40;99.90;;;;;;5073890;28;20807;-78
2023/09/08 10:26:11;;;;;;;4.73;4.33;;;26.50;99.90;;;;;;5073903;28;20447;-68
2023/09/08 10:28:38;;;;;;;5.90;5.40;;;26.60;99.90;;;;;;5073549;28;20467;-67
2023/09/08 10:31:05;;;;;;;6.27;5.73;;;26.80;99.90;;;;;;5073811;28;20903;-70
2023/09/08 10:33:34;;;;;;;5.37;5.00;;;26.90;99.90;;;;;;5073601;28;20455;-67
2023/09/08 10:36:04;;;;;;;8.40;5.67;;;27.00;99.90;;;;;;5073682;28;20479;-67
2023/09/08 10:38:33;;;;;;;6.53;4.97;;;27.00;99.90;;;;;;5072809;28;20889;-69
2023/09/08 10:41:32;;;;;;;6.43;5.90;;;27.10;99.90;;;;;;5073392;28;20803;-69
2023/09/08 10:44:02;;;;;;;5.87;5.37;;;27.20;99.90;;;;;;5073524;28;20440;-78
2023/09/08 10:46:31;;;;;;;5.80;5.30;;;27.20;99.90;;;;;;5073357;28;20439;-77
2023/09/08 10:49:04;;;;;;;6.53;5.40;;;27.10;99.90;;;;;;5073346;28;20877;-70
2023/09/08 10:51:31;;;;;;;5.57;5.17;;;27.10;99.90;;;;;;5073155;28;20443;-69
2023/09/08 10:53:57;;;;;;;4.90;4.60;;;27.00;99.90;;;;;;5072662;28;20861;-72
2023/09/08 10:56:28;;;;;;;6.87;5.50;;;27.20;99.90;;;;;;5072616;28;20994;-72
2023/09/08 10:58:55;;;;;;;6.00;5.60;;;27.30;99.90;;;;;;5072666;28;20454;-73
2023/09/08 11:01:26;;;;;;;5.87;5.47;;;27.50;99.90;;;;;;5072873;28;20493;-72
2023/09/08 11:03:53;;;;;;;5.07;4.77;;;27.40;99.90;;;;;;5073182;28;20451;-72
2023/09/08 11:06:23;;;;;;;8.17;5.80;;;27.40;99.90;;;;;;5073014;28;20443;-72
2023/09/08 11:08:52;;;;;;;9.87;4.73;;;27.40;99.90;;;;;;5070868;28;20447;-72
2023/09/08 11:11:19;;;;;;;5.13;4.73;;;27.60;99.90;;;;;;5072862;28;20478;-72
2023/09/08 11:13:46;;;;;;;5.13;4.80;;;27.70;99.90;;;;;;5073036;28;20482;-73
2023/09/08 11:16:14;;;;;;;19.37;5.50;;;27.70;99.90;;;;;;5072811;28;20471;-73
2023/09/08 11:18:42;;;;;;;8.00;5.20;;;27.70;99.90;;;;;;5072735;28;20483;-73
2023/09/08 11:21:09;;;;;;;4.73;4.33;;;27.80;99.90;;;;;;5072917;28;20957;-72
2023/09/08 11:23:38;;;;;;;5.10;4.17;;;27.90;99.90;;;;;;5073233;28;20870;-72
2023/09/08 11:26:06;;;;;;;4.43;4.10;;;27.90;99.90;;;;;;5072796;28;21014;-72
2023/09/08 11:28:33;;;;;;;4.47;4.17;;;27.90;99.90;;;;;;5072704;28;20558;-73
2023/09/08 11:31:00;;;;;;;4.97;4.57;;;28.00;99.90;;;;;;5072781;28;20443;-73
2023/09/08 11:33:26;;;;;;;5.53;4.60;;;28.10;99.90;;;;;;5072566;28;20443;-72
2023/09/08 11:35:53;;;;;;;5.20;4.90;;;28.10;99.90;;;;;;5072891;28;20450;-72
2023/09/08 11:38:25;;;;;;;5.70;5.20;;;28.10;99.90;;;;;;5072777;28;20877;-72
2023/09/08 11:40:53;;;;;;;5.20;4.80;;;27.80;99.90;;;;;;5072842;28;20453;-73
2023/09/08 11:43:20;;;;;;;5.80;5.30;;;27.90;99.90;;;;;;5072750;28;20546;-73
2023/09/08 11:45:47;;;;;;;5.30;4.90;;;28.10;99.90;;;;;;5072596;28;20725;-73
2023/09/08 11:48:15;;;;;;;4.87;4.47;;;28.20;99.90;;;;;;5072890;28;20535;-73
2023/09/08 11:50:42;;;;;;;4.67;4.37;;;28.20;99.90;;;;;;5072587;28;21034;-73
2023/09/08 11:53:09;;;;;;;6.13;4.70;;;28.00;99.90;;;;;;5072581;28;20875;-73
2023/09/08 11:55:36;;;;;;;5.80;4.50;;;28.10;99.90;;;;;;5072673;28;20538;-73
2023/09/08 11:58:05;;;;;;;4.60;4.20;;;28.20;99.90;;;;;;5072592;28;20572;-73
2023/09/08 12:00:32;;;;;;;6.53;4.67;;;28.20;99.90;;;;;;5072527;28;20856;-73
2023/09/08 12:03:10;;;;;;;5.30;4.30;;;28.30;99.90;;;;;;5072668;28;20452;-73
2023/09/08 12:05:37;;;;;;;5.10;4.60;;;28.40;99.90;;;;;;5074077;28;20537;-73
2023/09/08 12:08:05;;;;;;;4.43;4.03;;;28.50;99.90;;;;;;5076491;28;21072;-73
2023/09/08 12:10:38;;;;;;;6.20;4.40;;;28.40;99.90;;;;;;5076366;28;20458;-73
2023/09/08 12:13:07;;;;;;;4.40;4.10;;;28.20;99.90;;;;;;5076159;28;20845;-73
2023/09/08 12:15:35;;;;;;;4.60;4.20;;;28.30;99.90;;;;;;5076252;28;20496;-73
2023/09/08 12:18:03;;;;;;;4.17;3.87;;;28.50;99.90;;;;;;5076059;28;20537;-73
2023/09/08 12:20:29;;;;;;;9.10;4.47;;;28.60;99.90;;;;;;5076030;28;20490;-73
2023/09/08 12:22:59;;;;;;;4.80;4.40;;;28.70;99.70;;;;;;5076183;28;20448;-73
2023/09/08 12:25:27;;;;;;;4.90;4.37;;;28.70;98.90;;;;;;5075953;28;20964;-73
2023/09/08 12:27:54;;;;;;;4.90;4.60;;;28.60;99.00;;;;;;5076083;28;20483;-73
2023/09/08 12:30:29;;;;;;;4.73;4.43;;;28.70;99.00;;;;;;5076028;28;20876;-73
2023/09/08 12:32:57;;;;;;;4.80;4.40;;;28.90;98.80;;;;;;5076136;28;20825;-73
2023/09/08 12:35:24;;;;;;;8.50;4.70;;;29.10;99.10;;;;;;5075959;28;20443;-73
2023/09/08 12:38:01;;;;;;;4.80;4.50;;;29.00;98.40;;;;;;5075742;28;20479;-73
2023/09/08 12:40:27;;;;;;;4.90;4.50;;;29.10;97.40;;;;;;5076087;28;20504;-73
2023/09/08 12:42:55;;;;;;;4.43;4.13;;;28.80;97.00;;;;;;5075911;28;20526;-73
2023/09/08 12:45:23;;;;;;;4.80;4.40;;;28.80;96.90;;;;;;5075860;28;20531;-73